<?xml version="1.0" encoding="UTF-8" standalone="no" ?>
<gpx xmlns="http://www.topografix.com/GPX/1/1" xmlns:xsi="http://www.w3.org/2001/XMLSchema-instance" xsi:schemaLocation="http://www.topografix.com/GPX/1/1 http://www.topografix.com/GPX/1/1/gpx.xsd" version="1.1" creator="VisuGPX - https://www.visugpx.com">
  <metadata>
    <name>balade sur Lavoine</name>
    <desc><![CDATA[pas de balisage, rando à fgaire avec la carte en main]]></desc>
  </metadata>
  <trk>
    <name><![CDATA[--Lavoine-- OR-1704350:scieries]]></name>
    <trkseg>
      <trkpt lat="45.9784" lon="3.69684">
        <ele>799</ele>
        <time>2015-11-03T16:29:53Z</time>
      </trkpt>
      <trkpt lat="45.9793" lon="3.69601">
        <ele>777</ele>
        <time>2015-11-03T16:31:53Z</time>
      </trkpt>
      <trkpt lat="45.97898" lon="3.69517">
        <ele>771</ele>
        <time>2015-11-03T16:33:53Z</time>
      </trkpt>
      <trkpt lat="45.97876" lon="3.69429">
        <ele>767</ele>
        <time>2015-11-03T16:35:53Z</time>
      </trkpt>
      <trkpt lat="45.97883" lon="3.69397">
        <ele>767</ele>
        <time>2015-11-03T16:37:53Z</time>
      </trkpt>
      <trkpt lat="45.97959" lon="3.69402">
        <ele>769</ele>
        <time>2015-11-03T16:39:53Z</time>
      </trkpt>
      <trkpt lat="45.98016" lon="3.69392">
        <ele>772</ele>
        <time>2015-11-03T16:41:53Z</time>
      </trkpt>
      <trkpt lat="45.98059" lon="3.69324">
        <ele>778</ele>
        <time>2015-11-03T16:43:53Z</time>
      </trkpt>
      <trkpt lat="45.98059" lon="3.69235">
        <ele>780</ele>
        <time>2015-11-03T16:45:53Z</time>
      </trkpt>
      <trkpt lat="45.98063" lon="3.69136">
        <ele>784</ele>
        <time>2015-11-03T16:47:53Z</time>
      </trkpt>
      <trkpt lat="45.9807" lon="3.69079">
        <ele>788</ele>
        <time>2015-11-03T16:49:53Z</time>
      </trkpt>
      <trkpt lat="45.98074" lon="3.69006">
        <ele>793</ele>
        <time>2015-11-03T16:51:53Z</time>
      </trkpt>
      <trkpt lat="45.98034" lon="3.68964">
        <ele>797</ele>
        <time>2015-11-03T16:53:53Z</time>
      </trkpt>
      <trkpt lat="45.98005" lon="3.68907">
        <ele>801</ele>
        <time>2015-11-03T16:55:53Z</time>
      </trkpt>
      <trkpt lat="45.97955" lon="3.68891">
        <ele>807</ele>
        <time>2015-11-03T16:57:53Z</time>
      </trkpt>
      <trkpt lat="45.97898" lon="3.68828">
        <ele>809</ele>
        <time>2015-11-03T16:59:53Z</time>
      </trkpt>
      <trkpt lat="45.97833" lon="3.68802">
        <ele>818</ele>
        <time>2015-11-03T17:01:53Z</time>
      </trkpt>
      <trkpt lat="45.97797" lon="3.68771">
        <ele>818</ele>
        <time>2015-11-03T17:03:53Z</time>
      </trkpt>
      <trkpt lat="45.97772" lon="3.68687">
        <ele>820</ele>
        <time>2015-11-03T17:05:53Z</time>
      </trkpt>
      <trkpt lat="45.97761" lon="3.68619">
        <ele>821</ele>
        <time>2015-11-03T17:07:53Z</time>
      </trkpt>
      <trkpt lat="45.97725" lon="3.68572">
        <ele>825</ele>
        <time>2015-11-03T17:09:53Z</time>
      </trkpt>
      <trkpt lat="45.97678" lon="3.68546">
        <ele>832</ele>
        <time>2015-11-03T17:11:53Z</time>
      </trkpt>
      <trkpt lat="45.97639" lon="3.68463">
        <ele>839</ele>
        <time>2015-11-03T17:13:53Z</time>
      </trkpt>
      <trkpt lat="45.97624" lon="3.68369">
        <ele>847</ele>
        <time>2015-11-03T17:15:53Z</time>
      </trkpt>
      <trkpt lat="45.9766" lon="3.68291">
        <ele>855</ele>
        <time>2015-11-03T17:17:53Z</time>
      </trkpt>
      <trkpt lat="45.97682" lon="3.68238">
        <ele>862</ele>
        <time>2015-11-03T17:19:53Z</time>
      </trkpt>
      <trkpt lat="45.97714" lon="3.68181">
        <ele>865</ele>
        <time>2015-11-03T17:21:53Z</time>
      </trkpt>
      <trkpt lat="45.9784" lon="3.68186">
        <ele>858</ele>
        <time>2015-11-03T17:23:53Z</time>
      </trkpt>
      <trkpt lat="45.97937" lon="3.68202">
        <ele>854</ele>
        <time>2015-11-03T17:25:53Z</time>
      </trkpt>
      <trkpt lat="45.98005" lon="3.68191">
        <ele>855</ele>
        <time>2015-11-03T17:27:53Z</time>
      </trkpt>
      <trkpt lat="45.98077" lon="3.68212">
        <ele>856</ele>
        <time>2015-11-03T17:29:53Z</time>
      </trkpt>
      <trkpt lat="45.98149" lon="3.68212">
        <ele>860</ele>
        <time>2015-11-03T17:31:53Z</time>
      </trkpt>
      <trkpt lat="45.98199" lon="3.68186">
        <ele>865</ele>
        <time>2015-11-03T17:33:53Z</time>
      </trkpt>
      <trkpt lat="45.98329" lon="3.68129">
        <ele>868</ele>
        <time>2015-11-03T17:35:53Z</time>
      </trkpt>
      <trkpt lat="45.98393" lon="3.68092">
        <ele>865</ele>
        <time>2015-11-03T17:37:53Z</time>
      </trkpt>
      <trkpt lat="45.98404" lon="3.68019">
        <ele>863</ele>
        <time>2015-11-03T17:39:53Z</time>
      </trkpt>
      <trkpt lat="45.98408" lon="3.67925">
        <ele>860</ele>
        <time>2015-11-03T17:41:53Z</time>
      </trkpt>
      <trkpt lat="45.98426" lon="3.67857">
        <ele>856</ele>
        <time>2015-11-03T17:43:53Z</time>
      </trkpt>
      <trkpt lat="45.98426" lon="3.67763">
        <ele>856</ele>
        <time>2015-11-03T17:45:53Z</time>
      </trkpt>
      <trkpt lat="45.98361" lon="3.67664">
        <ele>854</ele>
        <time>2015-11-03T17:47:53Z</time>
      </trkpt>
      <trkpt lat="45.9834" lon="3.67607">
        <ele>848</ele>
        <time>2015-11-03T17:49:53Z</time>
      </trkpt>
      <trkpt lat="45.98311" lon="3.67555">
        <ele>845</ele>
        <time>2015-11-03T17:51:53Z</time>
      </trkpt>
      <trkpt lat="45.98296" lon="3.67455">
        <ele>837</ele>
        <time>2015-11-03T17:53:53Z</time>
      </trkpt>
      <trkpt lat="45.9826" lon="3.67419">
        <ele>834</ele>
        <time>2015-11-03T17:55:53Z</time>
      </trkpt>
      <trkpt lat="45.98239" lon="3.67351">
        <ele>828</ele>
        <time>2015-11-03T17:57:53Z</time>
      </trkpt>
      <trkpt lat="45.98203" lon="3.67288">
        <ele>824</ele>
        <time>2015-11-03T17:59:53Z</time>
      </trkpt>
      <trkpt lat="45.98149" lon="3.67189">
        <ele>817</ele>
        <time>2015-11-03T18:01:53Z</time>
      </trkpt>
      <trkpt lat="45.98128" lon="3.67069">
        <ele>802</ele>
        <time>2015-11-03T18:03:53Z</time>
      </trkpt>
      <trkpt lat="45.98124" lon="3.67027">
        <ele>799</ele>
        <time>2015-11-03T18:05:53Z</time>
      </trkpt>
      <trkpt lat="45.98138" lon="3.66892">
        <ele>788</ele>
        <time>2015-11-03T18:07:53Z</time>
      </trkpt>
      <trkpt lat="45.98131" lon="3.66745">
        <ele>770</ele>
        <time>2015-11-03T18:09:53Z</time>
      </trkpt>
      <trkpt lat="45.98092" lon="3.66698">
        <ele>768</ele>
        <time>2015-11-03T18:11:53Z</time>
      </trkpt>
      <trkpt lat="45.98041" lon="3.66709">
        <ele>775</ele>
        <time>2015-11-03T18:13:53Z</time>
      </trkpt>
      <trkpt lat="45.98005" lon="3.66683">
        <ele>777</ele>
        <time>2015-11-03T18:15:53Z</time>
      </trkpt>
      <trkpt lat="45.98023" lon="3.6662">
        <ele>770</ele>
        <time>2015-11-03T18:17:53Z</time>
      </trkpt>
      <trkpt lat="45.97973" lon="3.66636">
        <ele>777</ele>
        <time>2015-11-03T18:19:53Z</time>
      </trkpt>
      <trkpt lat="45.97912" lon="3.66683">
        <ele>788</ele>
        <time>2015-11-03T18:21:53Z</time>
      </trkpt>
      <trkpt lat="45.97858" lon="3.66714">
        <ele>793</ele>
        <time>2015-11-03T18:23:53Z</time>
      </trkpt>
      <trkpt lat="45.97797" lon="3.66745">
        <ele>800</ele>
        <time>2015-11-03T18:25:53Z</time>
      </trkpt>
      <trkpt lat="45.97729" lon="3.66761">
        <ele>806</ele>
        <time>2015-11-03T18:27:53Z</time>
      </trkpt>
      <trkpt lat="45.97664" lon="3.66766">
        <ele>814</ele>
        <time>2015-11-03T18:29:53Z</time>
      </trkpt>
      <trkpt lat="45.97599" lon="3.66787">
        <ele>820</ele>
        <time>2015-11-03T18:31:53Z</time>
      </trkpt>
      <trkpt lat="45.97553" lon="3.66829">
        <ele>828</ele>
        <time>2015-11-03T18:33:53Z</time>
      </trkpt>
      <trkpt lat="45.97513" lon="3.66839">
        <ele>832</ele>
        <time>2015-11-03T18:35:53Z</time>
      </trkpt>
      <trkpt lat="45.97477" lon="3.66897">
        <ele>847</ele>
        <time>2015-11-03T18:37:53Z</time>
      </trkpt>
      <trkpt lat="45.97438" lon="3.66949">
        <ele>857</ele>
        <time>2015-11-03T18:39:53Z</time>
      </trkpt>
      <trkpt lat="45.97369" lon="3.66975">
        <ele>865</ele>
        <time>2015-11-03T18:41:53Z</time>
      </trkpt>
      <trkpt lat="45.97297" lon="3.66959">
        <ele>873</ele>
        <time>2015-11-03T18:43:53Z</time>
      </trkpt>
      <trkpt lat="45.97233" lon="3.66975">
        <ele>890</ele>
        <time>2015-11-03T18:45:53Z</time>
      </trkpt>
      <trkpt lat="45.97161" lon="3.66986">
        <ele>904</ele>
        <time>2015-11-03T18:47:53Z</time>
      </trkpt>
      <trkpt lat="45.97103" lon="3.66975">
        <ele>913</ele>
        <time>2015-11-03T18:49:53Z</time>
      </trkpt>
      <trkpt lat="45.9705" lon="3.66923">
        <ele>918</ele>
        <time>2015-11-03T18:51:53Z</time>
      </trkpt>
      <trkpt lat="45.96992" lon="3.66819">
        <ele>926</ele>
        <time>2015-11-03T18:53:53Z</time>
      </trkpt>
      <trkpt lat="45.96949" lon="3.66777">
        <ele>935</ele>
        <time>2015-11-03T18:55:53Z</time>
      </trkpt>
      <trkpt lat="45.9692" lon="3.66735">
        <ele>940</ele>
        <time>2015-11-03T18:57:53Z</time>
      </trkpt>
      <trkpt lat="45.96884" lon="3.66745">
        <ele>949</ele>
        <time>2015-11-03T18:59:53Z</time>
      </trkpt>
      <trkpt lat="45.96838" lon="3.66745">
        <ele>959</ele>
        <time>2015-11-03T19:01:53Z</time>
      </trkpt>
      <trkpt lat="45.96798" lon="3.66803">
        <ele>970</ele>
        <time>2015-11-03T19:03:53Z</time>
      </trkpt>
      <trkpt lat="45.96737" lon="3.66756">
        <ele>981</ele>
        <time>2015-11-03T19:05:53Z</time>
      </trkpt>
      <trkpt lat="45.96661" lon="3.66657">
        <ele>997</ele>
        <time>2015-11-03T19:07:53Z</time>
      </trkpt>
      <trkpt lat="45.96611" lon="3.6662">
        <ele>1007</ele>
        <time>2015-11-03T19:09:53Z</time>
      </trkpt>
      <trkpt lat="45.96575" lon="3.66578">
        <ele>1012</ele>
        <time>2015-11-03T19:11:53Z</time>
      </trkpt>
      <trkpt lat="45.96618" lon="3.66735">
        <ele>1012</ele>
        <time>2015-11-03T19:13:53Z</time>
      </trkpt>
      <trkpt lat="45.96618" lon="3.66813">
        <ele>1013</ele>
        <time>2015-11-03T19:15:53Z</time>
      </trkpt>
      <trkpt lat="45.96622" lon="3.67048">
        <ele>1018</ele>
        <time>2015-11-03T19:17:53Z</time>
      </trkpt>
      <trkpt lat="45.96683" lon="3.67142">
        <ele>1013</ele>
        <time>2015-11-03T19:19:53Z</time>
      </trkpt>
      <trkpt lat="45.96744" lon="3.67215">
        <ele>1008</ele>
        <time>2015-11-03T19:21:53Z</time>
      </trkpt>
      <trkpt lat="45.9678" lon="3.6732">
        <ele>1010</ele>
        <time>2015-11-03T19:23:53Z</time>
      </trkpt>
      <trkpt lat="45.96841" lon="3.67393">
        <ele>1006</ele>
        <time>2015-11-03T19:25:53Z</time>
      </trkpt>
      <trkpt lat="45.96888" lon="3.67455">
        <ele>1003</ele>
        <time>2015-11-03T19:27:53Z</time>
      </trkpt>
      <trkpt lat="45.96902" lon="3.6756">
        <ele>998</ele>
        <time>2015-11-03T19:29:53Z</time>
      </trkpt>
      <trkpt lat="45.9687" lon="3.67628">
        <ele>989</ele>
        <time>2015-11-03T19:31:53Z</time>
      </trkpt>
      <trkpt lat="45.96812" lon="3.67675">
        <ele>980</ele>
        <time>2015-11-03T19:33:53Z</time>
      </trkpt>
      <trkpt lat="45.96741" lon="3.67716">
        <ele>976</ele>
        <time>2015-11-03T19:35:53Z</time>
      </trkpt>
      <trkpt lat="45.96701" lon="3.67748">
        <ele>979</ele>
        <time>2015-11-03T19:37:53Z</time>
      </trkpt>
      <trkpt lat="45.96661" lon="3.6781">
        <ele>976</ele>
        <time>2015-11-03T19:39:53Z</time>
      </trkpt>
      <trkpt lat="45.96654" lon="3.67899">
        <ele>964</ele>
        <time>2015-11-03T19:41:53Z</time>
      </trkpt>
      <trkpt lat="45.96658" lon="3.67946">
        <ele>959</ele>
        <time>2015-11-03T19:43:53Z</time>
      </trkpt>
      <trkpt lat="45.96647" lon="3.68056">
        <ele>955</ele>
        <time>2015-11-03T19:45:53Z</time>
      </trkpt>
      <trkpt lat="45.9664" lon="3.68155">
        <ele>943</ele>
        <time>2015-11-03T19:47:53Z</time>
      </trkpt>
      <trkpt lat="45.96618" lon="3.68218">
        <ele>937</ele>
        <time>2015-11-03T19:49:53Z</time>
      </trkpt>
      <trkpt lat="45.966" lon="3.6827">
        <ele>931</ele>
        <time>2015-11-03T19:51:53Z</time>
      </trkpt>
      <trkpt lat="45.96579" lon="3.68343">
        <ele>926</ele>
        <time>2015-11-03T19:53:53Z</time>
      </trkpt>
      <trkpt lat="45.96536" lon="3.68327">
        <ele>930</ele>
        <time>2015-11-03T19:55:53Z</time>
      </trkpt>
      <trkpt lat="45.96467" lon="3.68322">
        <ele>936</ele>
        <time>2015-11-03T19:57:53Z</time>
      </trkpt>
      <trkpt lat="45.96403" lon="3.68369">
        <ele>935</ele>
        <time>2015-11-03T19:59:53Z</time>
      </trkpt>
      <trkpt lat="45.96345" lon="3.68416">
        <ele>936</ele>
        <time>2015-11-03T20:01:53Z</time>
      </trkpt>
      <trkpt lat="45.96281" lon="3.68473">
        <ele>944</ele>
        <time>2015-11-03T20:03:53Z</time>
      </trkpt>
      <trkpt lat="45.96248" lon="3.68515">
        <ele>948</ele>
        <time>2015-11-03T20:05:53Z</time>
      </trkpt>
      <trkpt lat="45.96299" lon="3.68604">
        <ele>931</ele>
        <time>2015-11-03T20:07:53Z</time>
      </trkpt>
      <trkpt lat="45.9637" lon="3.68703">
        <ele>923</ele>
        <time>2015-11-03T20:09:53Z</time>
      </trkpt>
      <trkpt lat="45.96435" lon="3.68833">
        <ele>913</ele>
        <time>2015-11-03T20:11:53Z</time>
      </trkpt>
      <trkpt lat="45.96496" lon="3.68927">
        <ele>905</ele>
        <time>2015-11-03T20:13:53Z</time>
      </trkpt>
      <trkpt lat="45.96593" lon="3.68922">
        <ele>892</ele>
        <time>2015-11-03T20:15:53Z</time>
      </trkpt>
      <trkpt lat="45.9669" lon="3.68948">
        <ele>887</ele>
        <time>2015-11-03T20:17:53Z</time>
      </trkpt>
      <trkpt lat="45.96723" lon="3.6898">
        <ele>887</ele>
        <time>2015-11-03T20:19:53Z</time>
      </trkpt>
      <trkpt lat="45.96805" lon="3.69021">
        <ele>883</ele>
        <time>2015-11-03T20:21:53Z</time>
      </trkpt>
      <trkpt lat="45.96863" lon="3.69032">
        <ele>879</ele>
        <time>2015-11-03T20:23:53Z</time>
      </trkpt>
      <trkpt lat="45.96931" lon="3.69136">
        <ele>884</ele>
        <time>2015-11-03T20:25:53Z</time>
      </trkpt>
      <trkpt lat="45.97006" lon="3.69235">
        <ele>886</ele>
        <time>2015-11-03T20:27:53Z</time>
      </trkpt>
      <trkpt lat="45.97039" lon="3.69392">
        <ele>886</ele>
        <time>2015-11-03T20:29:53Z</time>
      </trkpt>
      <trkpt lat="45.97021" lon="3.69538">
        <ele>891</ele>
        <time>2015-11-03T20:31:53Z</time>
      </trkpt>
      <trkpt lat="45.96992" lon="3.69836">
        <ele>887</ele>
        <time>2015-11-03T20:33:53Z</time>
      </trkpt>
      <trkpt lat="45.97003" lon="3.69998">
        <ele>891</ele>
        <time>2015-11-03T20:35:53Z</time>
      </trkpt>
      <trkpt lat="45.96978" lon="3.70107">
        <ele>885</ele>
        <time>2015-11-03T20:37:53Z</time>
      </trkpt>
      <trkpt lat="45.97075" lon="3.70159">
        <ele>875</ele>
        <time>2015-11-03T20:39:53Z</time>
      </trkpt>
      <trkpt lat="45.97215" lon="3.70227">
        <ele>864</ele>
        <time>2015-11-03T20:41:53Z</time>
      </trkpt>
      <trkpt lat="45.97366" lon="3.70222">
        <ele>856</ele>
        <time>2015-11-03T20:43:53Z</time>
      </trkpt>
      <trkpt lat="45.97474" lon="3.7018">
        <ele>851</ele>
        <time>2015-11-03T20:45:53Z</time>
      </trkpt>
      <trkpt lat="45.97592" lon="3.70154">
        <ele>845</ele>
        <time>2015-11-03T20:47:53Z</time>
      </trkpt>
      <trkpt lat="45.97668" lon="3.70065">
        <ele>840</ele>
        <time>2015-11-03T20:49:53Z</time>
      </trkpt>
      <trkpt lat="45.97754" lon="3.6994">
        <ele>831</ele>
        <time>2015-11-03T20:51:53Z</time>
      </trkpt>
      <trkpt lat="45.97818" lon="3.69909">
        <ele>823</ele>
        <time>2015-11-03T20:53:53Z</time>
      </trkpt>
      <trkpt lat="45.97887" lon="3.69815">
        <ele>808</ele>
        <time>2015-11-03T20:55:53Z</time>
      </trkpt>
      <trkpt lat="45.97869" lon="3.69773">
        <ele>806</ele>
        <time>2015-11-03T20:57:53Z</time>
      </trkpt>
      <trkpt lat="45.97811" lon="3.69731">
        <ele>807</ele>
        <time>2015-11-03T20:59:53Z</time>
      </trkpt>
    </trkseg>
  </trk>
</gpx>